Quick Links (Output Below):   Max & Min Temps   /   Climate Reports   /   Zone Forecasts
River Forecasts   /   Forestry Forecasts   /   Aviation Forecasts   /   Radars   /   Features

Terminal Aerodrome Forecast (Harrison)

Pick a Site:
Arkadelphia | El Dorado | Fayetteville | Fort Smith | Harrison | Highfill | Hot Springs | Jonesboro
Little Rock | Monticello | Mountain Home | Pine Bluff | Texarkana
 Forecast 

KHRO 162330Z 1700/1724 14012KT P6SM SCT250
     FM170200 14007KT P6SM SCT250
     FM171500 14007G18KT P6SM SCT100 BKN250=


 Latest METARs (Observations) 
How to Decode METARs
04Z KHRO 170353Z AUTO 11003KT 10SM CLR 07/M01 A3012 RMK AO2 SLP199
         T00671011
         
03Z KHRO 170253Z AUTO 14003KT 10SM CLR 09/M02 A3009 RMK AO2 SLP190
         T00891017 53023
         
02Z KHRO 170153Z AUTO 15008KT 10SM CLR 10/M02 A3005 RMK AO2 SLP175
         T01001017
         
01Z KHRO 170053Z AUTO 16010KT 10SM CLR 11/M02 A3003 RMK AO2 SLP169
         T01111017
         
00Z KHRO 162353Z AUTO 16013KT 10SM CLR 13/M02 A3002 RMK AO2 SLP167
         T01331022 10167 20128 55004
         
***** Today's Observations (Above) *****


23Z KHRO 162253Z AUTO 14015KT 10SM CLR 15/M03 A3001 RMK AO2 SLP163
         T01501028
         
22Z KHRO 162153Z AUTO 18013G20KT 10SM CLR 16/M04 A3003 RMK AO2 SLP169
         T01561039
         
21Z KHRO 162053Z AUTO 17013G21KT 10SM CLR 16/M04 A3004 RMK AO2 SLP171
         T01611039 58024
         
20Z KHRO 161953Z AUTO 16017KT 10SM CLR 15/M04 A3006 RMK AO2 PK WND
         15026/1925 SLP178 T01501044
         
19Z KHRO 161853Z AUTO 17020G27KT 10SM CLR 15/M04 A3009 RMK AO2 PK WND
         16028/1822 SLP191 T01501039
         
***** Yesterday's Observations (Above) *****


Back to Main Page
http://www.srh.noaa.gov/lzk/qfcst.php

USA.gov is the U.S. government's official web portal to all federal, state and local government web resources and services.